Time;durP1;ratioP1;P1;durP2;ratioP2;P2;SDS_P1;SDS_P2;PMS_P1;PMS_P2;Temp;Humidity;BMP_temperature;BMP_pressure;BME280_temperature;BME280_humidity;BME280_pressure;Samples;Min_cycle;Max_cycle;Signal;HPM_P1;HPM_P2
2022/11/25 00:04:39;;;;;;;105.60;48.03;;;8.80;99.90;;;;;;10326495;28;20309;-84
2022/11/25 00:09:41;;;;;;;115.50;52.47;;;8.90;99.90;;;;;;10325374;28;20330;-84
2022/11/25 00:14:44;;;;;;;96.63;44.33;;;8.40;99.90;;;;;;10300896;28;20245;-84
2022/11/25 00:19:47;;;;;;;104.03;47.73;;;8.50;99.90;;;;;;10363928;28;20717;-83
2022/11/25 00:24:50;;;;;;;77.80;38.70;;;8.70;99.90;;;;;;10362205;28;20408;-83
2022/11/25 00:29:52;;;;;;;92.57;43.83;;;9.50;99.90;;;;;;10333492;28;20686;-83
2022/11/25 00:34:54;;;;;;;107.00;43.53;;;9.30;99.90;;;;;;10348589;28;20232;-83
2022/11/25 00:39:57;;;;;;;107.87;48.13;;;8.40;99.90;;;;;;10372292;28;20243;-84
2022/11/25 00:44:59;;;;;;;103.13;48.77;;;8.90;99.90;;;;;;10352136;28;20264;-84
2022/11/25 00:50:02;;;;;;;105.47;46.40;;;8.30;99.90;;;;;;10330979;28;20243;-84
2022/11/25 00:55:05;;;;;;;134.47;61.70;;;8.00;99.90;;;;;;10332788;28;20693;-83
2022/11/25 01:00:10;;;;;;;95.53;43.43;;;7.80;99.90;;;;;;10334196;28;20229;-84
2022/11/25 01:05:15;;;;;;;113.83;53.33;;;7.50;99.90;;;;;;10330140;28;20333;-84
2022/11/25 01:10:17;;;;;;;118.90;53.80;;;7.60;99.90;;;;;;10332103;28;20279;-84
2022/11/25 01:15:20;;;;;;;129.73;56.47;;;7.00;99.90;;;;;;10330500;28;20301;-83
2022/11/25 01:20:22;;;;;;;106.30;49.93;;;6.50;99.90;;;;;;10330016;28;20660;-83
2022/11/25 01:25:25;;;;;;;74.43;36.37;;;6.70;99.90;;;;;;10312216;28;20270;-84
2022/11/25 01:30:28;;;;;;;95.97;41.73;;;7.50;99.90;;;;;;10329710;28;20201;-83
2022/11/25 01:35:30;;;;;;;116.57;51.10;;;7.90;99.90;;;;;;10313199;28;20321;-83
2022/11/25 01:40:32;;;;;;;86.00;39.27;;;8.10;99.90;;;;;;10330649;28;20240;-83
2022/11/25 01:45:36;;;;;;;96.73;42.60;;;8.00;99.90;;;;;;10315561;28;20259;-84
2022/11/25 01:50:40;;;;;;;98.53;43.73;;;7.90;99.90;;;;;;10315189;28;20286;-83
2022/11/25 01:55:50;;;;;;;91.47;44.10;;;8.20;99.90;;;;;;10328235;28;20290;-83
2022/11/25 02:00:52;;;;;;;93.13;41.73;;;8.30;99.90;;;;;;10362624;28;20236;-84
2022/11/25 02:06:11;;;;;;;126.63;55.37;;;8.30;99.90;;;;;;10330629;28;20243;-83
2022/11/25 02:11:15;;;;;;;129.90;54.60;;;7.70;99.90;;;;;;10330246;28;20266;-83
2022/11/25 02:16:18;;;;;;;130.43;56.90;;;6.80;99.90;;;;;;10361276;28;20278;-83
2022/11/25 02:21:39;;;;;;;123.83;52.37;;;7.00;99.90;;;;;;10360687;28;20326;-83
2022/11/25 02:26:41;;;;;;;87.20;37.47;;;6.90;99.90;;;;;;10360750;28;20622;-83
2022/11/25 02:31:49;;;;;;;105.10;47.97;;;7.40;99.90;;;;;;10312254;28;20205;-83
2022/11/25 02:36:52;;;;;;;71.57;33.83;;;7.80;99.90;;;;;;10327908;28;20652;-83
2022/11/25 02:41:57;;;;;;;87.80;37.90;;;8.10;99.90;;;;;;10359032;28;20611;-83
2022/11/25 02:47:00;;;;;;;111.43;46.43;;;8.40;99.90;;;;;;10362312;28;20650;-83
2022/11/25 02:52:03;;;;;;;105.73;49.77;;;8.00;99.90;;;;;;10326681;28;20258;-83
2022/11/25 02:57:05;;;;;;;96.50;44.73;;;6.90;99.90;;;;;;10326143;28;20713;-84
2022/11/25 03:02:10;;;;;;;104.27;46.97;;;6.50;99.90;;;;;;10326275;28;20282;-83
2022/11/25 03:07:12;;;;;;;103.50;46.80;;;6.30;99.90;;;;;;10326155;28;20279;-83
2022/11/25 03:12:18;;;;;;;97.07;45.53;;;6.00;99.90;;;;;;10326501;28;20268;-83
2022/11/25 03:17:20;;;;;;;111.40;49.40;;;5.70;99.90;;;;;;10327551;28;20318;-83
2022/11/25 03:22:23;;;;;;;124.37;49.97;;;5.30;99.90;;;;;;10358978;28;20793;-84
2022/11/25 03:27:25;;;;;;;102.87;43.23;;;5.20;99.90;;;;;;10327342;28;20286;-83
2022/11/25 03:32:33;;;;;;;109.73;44.20;;;5.10;99.90;;;;;;10326098;28;20579;-83
2022/11/25 03:37:36;;;;;;;80.03;36.47;;;5.20;99.90;;;;;;10327272;28;20287;-84
2022/11/25 03:42:39;;;;;;;117.87;48.07;;;5.80;99.90;;;;;;10325387;28;20283;-83
2022/11/25 03:47:43;;;;;;;104.63;47.47;;;6.80;99.90;;;;;;10325892;28;20200;-84
2022/11/25 03:52:46;;;;;;;113.13;48.40;;;6.10;99.90;;;;;;10332492;28;20878;-83
2022/11/25 03:57:49;;;;;;;111.13;48.30;;;5.50;99.90;;;;;;10332939;28;20204;-83
2022/11/25 04:02:52;;;;;;;101.97;46.77;;;5.70;99.90;;;;;;10313314;28;20273;-83
2022/11/25 04:07:55;;;;;;;111.87;48.47;;;6.30;99.90;;;;;;10333255;28;20637;-83
2022/11/25 04:13:00;;;;;;;103.20;45.03;;;5.80;99.90;;;;;;10349767;28;20217;-83
2022/11/25 04:18:09;;;;;;;110.07;47.43;;;6.70;99.90;;;;;;10342077;28;20264;-83
2022/11/25 04:23:13;;;;;;;91.70;40.10;;;5.90;99.90;;;;;;10333041;28;20314;-84
2022/11/25 04:28:24;;;;;;;116.83;47.50;;;6.50;99.90;;;;;;10332907;28;20332;-84
2022/11/25 04:33:27;;;;;;;83.53;38.53;;;6.00;99.90;;;;;;10338689;28;20262;-83
2022/11/25 04:38:29;;;;;;;80.17;36.43;;;5.80;99.90;;;;;;10334016;28;20211;-83
2022/11/25 04:43:32;;;;;;;80.50;34.90;;;6.50;99.90;;;;;;10331320;28;20315;-83
2022/11/25 04:48:40;;;;;;;76.27;35.47;;;7.30;99.90;;;;;;10331713;28;20309;-83
2022/11/25 04:53:44;;;;;;;67.17;31.27;;;7.80;99.90;;;;;;10345436;28;20205;-83
2022/11/25 05:04:13;;;;;;;72.13;33.43;;;8.90;99.90;;;;;;10330536;28;20255;-83
2022/11/25 05:09:15;;;;;;;73.67;34.10;;;8.80;99.90;;;;;;10331899;28;20645;-83
2022/11/25 05:14:24;;;;;;;73.27;33.80;;;8.60;99.90;;;;;;10315091;28;20788;-83
2022/11/25 05:19:26;;;;;;;71.37;34.33;;;8.90;99.90;;;;;;10361534;28;20318;-84
2022/11/25 05:24:30;;;;;;;77.73;37.20;;;8.80;99.90;;;;;;10330638;28;20261;-83
2022/11/25 05:29:33;;;;;;;73.20;35.77;;;8.30;99.90;;;;;;10327587;28;20279;-83
2022/11/25 05:34:36;;;;;;;66.30;31.57;;;7.30;99.90;;;;;;10329724;28;20299;-83
2022/11/25 05:39:39;;;;;;;74.63;33.37;;;7.20;99.90;;;;;;10353557;28;20285;-83
2022/11/25 05:45:08;;;;;;;97.27;42.47;;;6.90;99.90;;;;;;10312655;28;20800;-83
2022/11/25 05:50:11;;;;;;;87.97;40.50;;;6.20;99.90;;;;;;10318972;28;20232;-83
2022/11/25 05:55:14;;;;;;;74.27;37.43;;;5.60;99.90;;;;;;10329642;28;20618;-83
2022/11/25 06:00:20;;;;;;;60.53;28.60;;;5.80;99.90;;;;;;10352646;28;20288;-83
2022/11/25 06:05:28;;;;;;;57.93;29.60;;;6.40;99.90;;;;;;10384839;28;20318;-82
2022/11/25 06:10:31;;;;;;;83.30;38.23;;;7.10;99.90;;;;;;10350317;28;20230;-83
2022/11/25 06:15:40;;;;;;;66.50;31.63;;;6.90;99.90;;;;;;10360250;28;20244;-83
2022/11/25 06:20:43;;;;;;;63.23;28.83;;;6.50;99.90;;;;;;10334449;28;20217;-82
2022/11/25 06:25:46;;;;;;;63.67;29.73;;;6.80;99.90;;;;;;10328107;28;20255;-83
2022/11/25 06:30:48;;;;;;;52.60;26.83;;;7.50;99.90;;;;;;10332851;28;20586;-82
2022/11/25 06:35:58;;;;;;;77.93;38.23;;;8.00;99.90;;;;;;10326832;28;20209;-83
2022/11/25 06:41:04;;;;;;;77.47;40.07;;;7.90;99.90;;;;;;10328182;28;20236;-83
2022/11/25 06:46:09;;;;;;;71.57;30.10;;;7.20;99.90;;;;;;10329468;28;20714;-83
2022/11/25 06:51:14;;;;;;;110.43;49.97;;;7.60;99.90;;;;;;10335517;28;20266;-83
2022/11/25 06:56:25;;;;;;;73.30;34.80;;;4.80;99.90;;;;;;10323862;28;20260;-83
2022/11/25 07:01:29;;;;;;;83.40;35.20;;;6.20;99.90;;;;;;10328227;28;20757;-83
2022/11/25 07:06:32;;;;;;;80.47;35.30;;;6.40;99.90;;;;;;10325645;28;20272;-83
2022/11/25 07:11:38;;;;;;;80.63;36.97;;;6.60;99.90;;;;;;10325574;28;20236;-83
2022/11/25 07:16:42;;;;;;;82.57;38.53;;;6.70;99.90;;;;;;10320148;28;20686;-83
2022/11/25 07:21:45;;;;;;;73.70;34.70;;;6.40;99.90;;;;;;10323275;28;20244;-83
2022/11/25 07:26:48;;;;;;;80.73;37.47;;;7.30;99.90;;;;;;10322513;28;21067;-83
2022/11/25 07:31:50;;;;;;;84.17;38.93;;;6.90;99.90;;;;;;10327504;28;20201;-83
2022/11/25 07:36:53;;;;;;;89.67;41.40;;;7.20;99.90;;;;;;10327814;28;20246;-83
2022/11/25 07:41:55;;;;;;;86.20;40.27;;;7.40;99.90;;;;;;10325209;28;20743;-83
2022/11/25 07:46:58;;;;;;;90.60;45.03;;;6.30;99.90;;;;;;10321709;28;20306;-83
2022/11/25 07:52:03;;;;;;;101.27;44.93;;;6.00;99.90;;;;;;10326440;28;20372;-83
2022/11/25 07:57:05;;;;;;;81.90;37.70;;;5.80;99.90;;;;;;10353653;28;20235;-82
2022/11/25 08:02:09;;;;;;;76.80;36.60;;;6.00;99.90;;;;;;10325928;28;20295;-83
2022/11/25 08:07:11;;;;;;;87.97;38.90;;;6.90;99.90;;;;;;10358011;28;20254;-83
2022/11/25 08:12:14;;;;;;;91.70;42.13;;;7.20;99.90;;;;;;10371941;28;20755;-83
2022/11/25 08:17:16;;;;;;;104.30;45.13;;;6.80;99.90;;;;;;10350978;28;20276;-84
2022/11/25 08:22:19;;;;;;;97.40;41.07;;;6.90;99.90;;;;;;10325311;28;20291;-84
2022/11/25 08:27:21;;;;;;;144.53;64.00;;;6.40;99.90;;;;;;10325323;28;20253;-83
2022/11/25 08:32:24;;;;;;;96.53;40.60;;;4.60;99.90;;;;;;10327781;28;20287;-86
2022/11/25 08:37:29;;;;;;;106.57;45.30;;;6.30;99.90;;;;;;10331098;28;20630;-86
2022/11/25 08:42:31;;;;;;;113.77;53.03;;;6.50;99.90;;;;;;10334191;28;20682;-86
2022/11/25 08:47:34;;;;;;;95.53;46.37;;;6.50;99.90;;;;;;10333518;28;20238;-86
2022/11/25 08:52:36;;;;;;;109.07;45.07;;;6.70;99.90;;;;;;10333309;28;20234;-86
2022/11/25 08:57:39;;;;;;;101.27;43.00;;;6.30;99.90;;;;;;10331903;28;20208;-86
2022/11/25 09:02:41;;;;;;;99.70;43.17;;;6.20;99.90;;;;;;10345465;28;20239;-86
2022/11/25 09:07:44;;;;;;;101.73;46.23;;;6.40;99.90;;;;;;10371907;28;20262;-86
2022/11/25 09:12:47;;;;;;;106.90;47.17;;;6.50;99.90;;;;;;10373101;28;20198;-87
2022/11/25 09:18:00;;;;;;;88.60;43.97;;;6.40;99.90;;;;;;10371199;28;20289;-85
2022/11/25 09:23:04;;;;;;;88.20;40.60;;;6.80;99.90;;;;;;10372124;28;20302;-86
2022/11/25 09:28:08;;;;;;;88.07;38.93;;;7.30;99.90;;;;;;10371259;28;20308;-86
2022/11/25 09:33:10;;;;;;;95.27;43.57;;;8.20;99.90;;;;;;10372280;28;20293;-87
2022/11/25 09:38:13;;;;;;;91.80;44.10;;;8.00;99.90;;;;;;10372240;28;20289;-86
2022/11/25 09:49:07;;;;;;;112.23;54.07;;;7.20;99.90;;;;;;10323564;28;20791;-87
2022/11/25 09:54:16;;;;;;;88.00;42.33;;;7.80;99.90;;;;;;10323939;28;20334;-86
2022/11/25 09:59:25;;;;;;;97.27;43.60;;;8.10;99.90;;;;;;10324592;28;20247;-86
2022/11/25 10:04:46;;;;;;;105.67;46.37;;;7.80;99.90;;;;;;10324674;28;20262;-86
2022/11/25 10:09:48;;;;;;;85.57;40.40;;;7.80;99.90;;;;;;10323688;28;20262;-86
2022/11/25 10:14:59;;;;;;;94.93;40.30;;;8.10;99.90;;;;;;10324486;28;20342;-85
2022/11/25 10:20:05;;;;;;;85.63;41.70;;;8.20;99.90;;;;;;10326497;28;20268;-86
2022/11/25 10:25:16;;;;;;;98.07;44.87;;;8.10;99.90;;;;;;10329686;28;20697;-86
2022/11/25 10:30:40;;;;;;;105.27;51.00;;;8.00;99.90;;;;;;10329102;28;20664;-86
2022/11/25 10:35:51;;;;;;;98.93;45.33;;;7.80;99.90;;;;;;10328607;28;20266;-86
2022/11/25 10:40:54;;;;;;;87.60;40.83;;;7.50;99.90;;;;;;10328928;28;20246;-86
2022/11/25 10:46:22;;;;;;;104.13;51.63;;;7.40;99.90;;;;;;10327373;28;20636;-86
2022/11/25 10:51:48;;;;;;;87.83;40.67;;;7.60;99.90;;;;;;10328701;28;20294;-91
2022/11/25 10:56:55;;;;;;;117.60;47.50;;;8.20;99.90;;;;;;10318506;28;20686;-94
2022/11/25 11:02:19;;;;;;;111.77;46.10;;;8.60;99.90;;;;;;10350208;28;20249;-94
2022/11/25 11:07:26;;;;;;;109.93;46.23;;;8.60;99.90;;;;;;10347905;28;20235;-92
2022/11/25 11:12:48;;;;;;;104.03;44.17;;;8.60;99.90;;;;;;10365919;28;20216;-93
2022/11/25 11:17:55;;;;;;;92.30;42.53;;;8.90;99.90;;;;;;10387966;28;20227;-94
2022/11/25 11:23:01;;;;;;;110.30;56.67;;;8.90;99.90;;;;;;10338458;28;20258;-92
2022/11/25 11:28:43;;;;;;;94.30;43.33;;;8.40;99.90;;;;;;10359775;28;20253;-92
2022/11/25 11:33:56;;;;;;;92.97;43.90;;;8.80;99.90;;;;;;10280124;28;20303;-92
2022/11/25 11:39:34;;;;;;;89.37;44.70;;;8.80;99.90;;;;;;10260296;28;20241;-93
2022/11/25 11:44:58;;;;;;;79.83;41.97;;;8.40;99.90;;;;;;10148556;29;20290;-94
2022/11/25 11:50:14;;;;;;;91.43;43.57;;;8.30;99.90;;;;;;10155212;29;20251;-92
2022/11/25 11:55:33;;;;;;;65.93;30.73;;;8.10;99.90;;;;;;10107160;29;20214;-93
2022/11/25 12:01:04;;;;;;;104.30;55.03;;;8.70;99.90;;;;;;10153186;29;20303;-91
2022/11/25 12:06:09;;;;;;;125.87;61.93;;;;;;;;;;9998533;29;20677;-93
2022/11/25 12:11:19;;;;;;;144.27;66.77;;;4.80;99.90;;;;;;10068189;29;20305;-95
2022/11/25 12:16:49;;;;;;;146.93;66.93;;;4.30;99.90;;;;;;10076859;29;20847;-93
2022/11/25 12:21:59;;;;;;;158.97;66.77;;;4.10;99.90;;;;;;10155024;29;20251;-93
2022/11/25 12:27:13;;;;;;;168.27;70.90;;;4.00;99.90;;;;;;10154590;29;20235;-94
2022/11/25 12:32:37;;;;;;;139.27;60.87;;;3.80;99.90;;;;;;10169605;29;20215;-94
2022/11/25 12:37:45;;;;;;;100.73;42.17;;;3.70;99.90;;;;;;10152918;29;20208;-93
2022/11/25 12:42:49;;;;;;;94.83;44.30;;;4.20;99.90;;;;;;10279655;28;20206;-92
2022/11/25 12:47:52;;;;;;;103.87;45.60;;;4.90;99.90;;;;;;10355241;28;20253;-92
2022/11/25 12:53:12;;;;;;;123.63;54.43;;;5.50;99.90;;;;;;10312726;28;20753;-91
2022/11/25 12:58:50;;;;;;;101.90;48.27;;;5.60;99.90;;;;;;10370354;28;20560;-91
2022/11/25 13:04:27;;;;;;;93.17;42.53;;;5.60;99.90;;;;;;10342151;28;20263;-92
2022/11/25 13:09:50;;;;;;;75.67;37.50;;;5.50;99.90;;;;;;10331000;28;20802;-91
2022/11/25 13:15:15;;;;;;;90.67;42.73;;;5.90;99.90;;;;;;10325657;28;20277;-93
2022/11/25 13:20:28;;;;;;;86.10;41.53;;;6.40;99.90;;;;;;10377976;28;20273;-92
2022/11/25 13:25:31;;;;;;;95.90;47.80;;;6.60;99.90;;;;;;10362029;28;20270;-91
2022/11/25 13:30:37;;;;;;;90.47;43.20;;;6.30;99.90;;;;;;10333851;28;20289;-90
2022/11/25 13:35:43;;;;;;;98.77;46.53;;;6.00;99.90;;;;;;10335836;28;20297;-89
2022/11/25 13:40:57;;;;;;;87.10;41.13;;;6.00;99.90;;;;;;10369912;28;20238;-89
2022/11/25 13:46:00;;;;;;;91.20;41.83;;;6.00;99.90;;;;;;10324938;28;20707;-90
2022/11/25 13:51:22;;;;;;;85.27;42.40;;;5.90;99.90;;;;;;10310945;28;20244;-90
2022/11/25 13:56:31;;;;;;;82.87;38.70;;;5.60;99.90;;;;;;10322366;28;20306;-90
2022/11/25 14:01:33;;;;;;;84.17;40.87;;;5.50;99.90;;;;;;10324285;28;20284;-89
2022/11/25 14:07:20;;;;;;;65.50;34.10;;;5.90;99.90;;;;;;10337120;28;20290;-90
2022/11/25 14:12:26;;;;;;;61.33;31.37;;;6.60;99.90;;;;;;10369203;28;20698;-90
2022/11/25 14:17:28;;;;;;;89.13;42.13;;;6.60;99.90;;;;;;10304464;28;20266;-90
2022/11/25 14:22:42;;;;;;;68.37;33.17;;;6.80;99.90;;;;;;10356172;28;20681;-90
2022/11/25 14:27:49;;;;;;;83.10;38.13;;;6.20;99.90;;;;;;10431838;22;20258;-90
2022/11/25 14:33:01;;;;;;;94.47;43.93;;;6.30;99.90;;;;;;10393826;28;20626;-88
2022/11/25 14:38:18;;;;;;;86.47;39.70;;;6.20;99.90;;;;;;10407835;23;20259;-90
2022/11/25 14:43:23;;;;;;;78.23;36.57;;;6.60;99.90;;;;;;10398081;28;20671;-90
2022/11/25 14:48:26;;;;;;;67.37;31.57;;;6.60;99.90;;;;;;10410287;28;20305;-90
2022/11/25 14:53:36;;;;;;;92.80;43.17;;;7.00;99.90;;;;;;10410281;28;20282;-89
2022/11/25 14:58:49;;;;;;;78.30;38.00;;;7.10;99.90;;;;;;10393058;28;20242;-90
2022/11/25 15:04:05;;;;;;;81.17;39.33;;;7.10;99.90;;;;;;10409528;28;20238;-89
2022/11/25 15:09:35;;;;;;;80.20;38.83;;;7.00;99.90;;;;;;10396179;28;20229;-90
2022/11/25 15:14:41;;;;;;;74.00;35.97;;;7.40;99.90;;;;;;10394928;28;20239;-90
2022/11/25 15:19:44;;;;;;;101.37;42.93;;;7.70;99.90;;;;;;10406868;28;20231;-90
2022/11/25 15:24:47;;;;;;;168.40;70.30;;;7.20;99.90;;;;;;10407244;28;20927;-89
2022/11/25 15:29:56;;;;;;;90.23;45.40;;;6.80;99.90;;;;;;10410963;28;20226;-89
2022/11/25 15:35:00;;;;;;;90.27;43.13;;;6.00;99.90;;;;;;10410651;28;20264;-89
2022/11/25 15:40:28;;;;;;;77.97;36.43;;;6.00;99.90;;;;;;10403767;28;20645;-89
2022/11/25 15:45:44;;;;;;;79.83;37.27;;;5.90;99.90;;;;;;10410013;28;20699;-89
2022/11/25 15:50:47;;;;;;;70.53;35.20;;;6.30;99.90;;;;;;10406036;28;20373;-89
2022/11/25 15:55:49;;;;;;;76.27;36.13;;;6.50;99.90;;;;;;10402519;28;20269;-89
2022/11/25 16:00:59;;;;;;;67.80;31.77;;;5.90;99.90;;;;;;10416819;28;20230;-90
2022/11/25 16:06:17;;;;;;;66.43;32.23;;;6.20;99.90;;;;;;10421278;28;20296;-89
2022/11/25 16:11:21;;;;;;;59.93;31.97;;;6.30;99.90;;;;;;10456487;28;20224;-89
2022/11/25 16:16:29;;;;;;;97.97;52.43;;;6.90;99.90;;;;;;10384847;28;20681;-89
2022/11/25 16:21:35;;;;;;;79.37;37.73;;;7.40;99.90;;;;;;10374962;28;20729;-89
2022/11/25 16:27:06;;;;;;;53.83;27.67;;;6.70;99.90;;;;;;10375227;28;20252;-89
2022/11/25 16:32:21;;;;;;;105.13;56.83;;;6.60;99.90;;;;;;10425280;28;20775;-91
2022/11/25 16:37:23;;;;;;;119.57;54.80;;;7.00;99.90;;;;;;10397271;28;20317;-91
2022/11/25 16:42:26;;;;;;;156.33;70.07;;;5.20;99.90;;;;;;10412820;28;20641;-92
2022/11/25 16:47:28;;;;;;;132.83;53.20;;;4.30;99.90;;;;;;10399996;28;20253;-91
2022/11/25 16:52:31;;;;;;;140.67;53.57;;;3.70;99.90;;;;;;10456887;28;20631;-88
2022/11/25 16:57:34;;;;;;;133.20;53.73;;;3.60;99.90;;;;;;10084653;28;10000172;-89
2022/11/25 17:02:37;;;;;;;131.13;54.13;;;3.40;99.90;;;;;;10424313;28;20235;-89
2022/11/25 17:07:40;;;;;;;139.10;54.17;;;3.30;99.90;;;;;;10427877;28;20254;-88
2022/11/25 17:12:44;;;;;;;147.17;61.37;;;3.20;99.90;;;;;;10451232;28;20276;-88
2022/11/25 17:17:48;;;;;;;140.67;51.67;;;3.10;99.90;;;;;;10434280;28;20241;-88
2022/11/25 17:22:51;;;;;;;146.20;51.63;;;3.10;99.90;;;;;;10424380;28;20698;-88
2022/11/25 17:27:54;;;;;;;140.13;49.60;;;3.00;99.90;;;;;;10452812;28;20259;-88
2022/11/25 17:33:05;;;;;;;113.03;44.43;;;2.90;99.90;;;;;;10404167;28;20232;-88
2022/11/25 17:38:18;;;;;;;126.20;49.07;;;3.00;99.90;;;;;;10384215;28;20265;-89
2022/11/25 17:43:21;;;;;;;140.73;52.43;;;3.00;99.90;;;;;;10418000;28;20236;-88
2022/11/25 17:48:23;;;;;;;133.83;51.13;;;2.80;99.90;;;;;;10374071;28;20324;-88
2022/11/25 17:53:26;;;;;;;153.10;53.07;;;2.80;99.90;;;;;;10433081;28;20609;-88
2022/11/25 17:58:29;;;;;;;125.87;46.23;;;2.80;99.90;;;;;;10414448;28;20754;-87
2022/11/25 18:03:31;;;;;;;100.33;40.87;;;2.80;99.90;;;;;;10411230;28;20699;-88
2022/11/25 18:08:34;;;;;;;100.97;45.87;;;2.90;99.90;;;;;;10431573;28;20266;-88
2022/11/25 18:13:39;;;;;;;123.57;49.23;;;2.90;99.90;;;;;;10369703;28;20236;-88
2022/11/25 18:18:42;;;;;;;104.43;44.67;;;2.90;99.90;;;;;;10430015;28;20238;-88
2022/11/25 18:23:44;;;;;;;120.47;45.37;;;2.80;99.90;;;;;;10419110;28;20704;-88
2022/11/25 18:28:47;;;;;;;122.73;43.17;;;2.80;99.90;;;;;;10393991;28;20255;-88
2022/11/25 18:33:49;;;;;;;106.67;44.20;;;2.80;99.90;;;;;;10406068;28;20293;-88
2022/11/25 18:38:52;;;;;;;114.03;42.27;;;2.80;99.90;;;;;;10374934;28;20256;-88
2022/11/25 18:43:58;;;;;;;171.17;51.00;;;2.80;99.90;;;;;;10462263;28;20257;-88
2022/11/25 18:49:00;;;;;;;124.60;48.37;;;2.80;99.90;;;;;;10416862;28;20220;-88
2022/11/25 18:54:03;;;;;;;125.53;48.27;;;2.80;99.90;;;;;;10394830;28;20204;-88
2022/11/25 18:59:10;;;;;;;139.07;46.40;;;2.80;99.90;;;;;;10386144;28;20212;-88
2022/11/25 19:04:16;;;;;;;126.90;47.03;;;2.80;99.90;;;;;;10396425;28;20587;-88
2022/11/25 19:09:18;;;;;;;124.80;45.70;;;2.80;99.90;;;;;;10418737;28;20579;-90
2022/11/25 19:14:33;;;;;;;155.87;54.40;;;2.80;99.90;;;;;;10415415;28;20203;-83
2022/11/25 19:19:38;;;;;;;124.23;46.07;;;2.80;99.90;;;;;;10426963;28;20260;-87
2022/11/25 19:24:41;;;;;;;133.10;48.80;;;2.80;99.90;;;;;;10412351;28;20200;-87
2022/11/25 19:29:44;;;;;;;121.87;47.73;;;2.80;99.90;;;;;;10399136;28;20219;-88
2022/11/25 19:34:50;;;;;;;123.57;46.70;;;3.10;99.90;;;;;;10419588;28;20227;-87
2022/11/25 19:39:53;;;;;;;127.13;48.53;;;3.00;99.90;;;;;;10373357;28;20689;-87
2022/11/25 19:44:55;;;;;;;135.47;48.30;;;2.90;99.90;;;;;;10381412;28;20261;-88
2022/11/25 19:50:01;;;;;;;151.13;56.43;;;2.70;99.90;;;;;;10404306;28;20689;-90
2022/11/25 19:55:15;;;;;;;143.83;51.53;;;2.80;99.90;;;;;;10412809;28;20224;-86
2022/11/25 20:00:20;;;;;;;165.77;59.80;;;2.80;99.90;;;;;;10403677;28;20274;-87
2022/11/25 20:05:27;;;;;;;150.53;52.57;;;2.70;99.90;;;;;;10393132;28;20237;-87
2022/11/25 20:10:31;;;;;;;139.37;53.93;;;2.70;99.90;;;;;;10412379;28;20253;-87
2022/11/25 20:15:33;;;;;;;143.27;53.37;;;2.70;99.90;;;;;;10411506;28;20280;-87
2022/11/25 20:20:39;;;;;;;117.80;49.23;;;2.70;99.90;;;;;;10406619;28;20237;-86
2022/11/25 20:25:45;;;;;;;120.57;48.80;;;2.80;99.90;;;;;;10408245;28;20269;-87
2022/11/25 20:30:48;;;;;;;135.73;54.03;;;2.80;99.90;;;;;;10384798;28;20230;-86
2022/11/25 20:35:57;;;;;;;106.40;44.50;;;2.80;99.90;;;;;;10374198;28;20316;-87
2022/11/25 20:41:00;;;;;;;127.00;50.53;;;2.70;99.90;;;;;;10427129;28;20225;-87
2022/11/25 20:46:04;;;;;;;124.90;53.37;;;2.70;99.90;;;;;;10397366;28;20313;-87
2022/11/25 20:51:18;;;;;;;128.33;59.00;;;2.70;99.90;;;;;;10409540;28;20649;-87
2022/11/25 20:56:22;;;;;;;130.60;56.57;;;2.70;99.90;;;;;;10414856;28;20203;-87
2022/11/25 21:01:25;;;;;;;151.03;61.27;;;2.80;99.90;;;;;;10404104;28;20584;-87
2022/11/25 21:06:29;;;;;;;126.53;57.27;;;2.70;99.90;;;;;;10401864;28;20258;-86
2022/11/25 21:11:32;;;;;;;131.87;58.30;;;2.80;99.90;;;;;;10372072;28;20234;-87
2022/11/25 21:16:34;;;;;;;128.27;52.77;;;2.80;99.90;;;;;;10378909;28;20669;-87
2022/11/25 21:21:40;;;;;;;116.70;51.83;;;2.80;99.90;;;;;;10402989;28;20233;-88
2022/11/25 21:26:43;;;;;;;116.17;48.83;;;2.80;99.90;;;;;;10414701;28;20801;-87
2022/11/25 21:31:46;;;;;;;107.13;49.93;;;2.80;99.90;;;;;;10423809;28;20226;-87
2022/11/25 21:36:51;;;;;;;111.43;50.57;;;2.80;99.90;;;;;;10427518;28;20606;-94
2022/11/25 21:41:56;;;;;;;119.57;55.77;;;2.80;99.90;;;;;;10433025;28;20571;-91
2022/11/25 21:46:59;;;;;;;122.63;54.63;;;2.80;99.90;;;;;;10433290;28;20245;-92
2022/11/25 21:52:01;;;;;;;122.57;55.27;;;2.80;99.90;;;;;;10460595;28;20619;-92
2022/11/25 21:57:04;;;;;;;129.13;57.90;;;2.80;99.90;;;;;;10479400;28;20207;-93
2022/11/25 22:02:19;;;;;;;55.93;25.63;;;2.80;99.90;;;;;;10447966;28;20229;-94
2022/11/25 22:07:23;;;;;;;75.67;33.03;;;3.70;99.90;;;;;;10394962;28;20250;-92
2022/11/25 22:12:33;;;;;;;62.93;28.00;;;5.70;99.90;;;;;;10443967;28;20190;-92
2022/11/25 22:17:43;;;;;;;64.53;25.77;;;6.20;99.90;;;;;;10480702;28;20229;-95
2022/11/25 22:22:46;;;;;;;91.03;41.07;;;6.80;99.90;;;;;;10482326;28;20199;-95
2022/11/25 22:27:49;;;;;;;64.03;30.57;;;6.50;99.90;;;;;;10489252;28;20246;-96
2022/11/25 22:33:17;;;;;;;92.63;39.63;;;6.30;99.90;;;;;;10474136;28;20187;-95
2022/11/25 22:38:50;;;;;;;70.60;32.70;;;5.70;99.90;;;;;;10451449;28;20258;-96
2022/11/25 22:43:54;;;;;;;75.93;35.50;;;5.50;99.90;;;;;;10400707;28;20237;-95
2022/11/25 22:48:56;;;;;;;70.30;31.43;;;5.60;99.90;;;;;;10464646;28;20237;-95
2022/11/25 22:54:00;;;;;;;88.20;40.20;;;5.60;99.90;;;;;;10467218;28;20203;-94
2022/11/25 22:59:09;;;;;;;73.37;35.40;;;5.80;99.90;;;;;;10492667;28;20199;-94
2022/11/25 23:04:18;;;;;;;92.93;40.33;;;5.70;99.90;;;;;;10479379;28;20230;-95
2022/11/25 23:09:35;;;;;;;67.03;29.20;;;5.50;99.90;;;;;;10416594;28;20242;-94
2022/11/25 23:14:45;;;;;;;104.53;47.37;;;6.30;99.90;;;;;;10363710;28;20200;-93
2022/11/25 23:20:13;;;;;;;75.77;34.00;;;6.80;99.90;;;;;;10409265;28;20244;-95
2022/11/25 23:25:20;;;;;;;59.70;29.13;;;6.70;99.90;;;;;;10431136;28;20244;-94
2022/11/25 23:30:23;;;;;;;67.23;31.13;;;7.20;99.90;;;;;;10449244;28;20230;-94
2022/11/25 23:35:36;;;;;;;61.33;30.03;;;7.40;99.90;;;;;;10465021;28;20237;-95
2022/11/25 23:40:40;;;;;;;73.13;35.33;;;7.60;99.90;;;;;;10417447;28;20238;-95
2022/11/25 23:45:54;;;;;;;87.37;40.67;;;7.40;99.90;;;;;;10425151;28;20206;-95
2022/11/25 23:50:59;;;;;;;56.53;28.87;;;7.30;99.90;;;;;;10402698;28;20231;-94
2022/11/25 23:56:01;;;;;;;101.87;42.00;;;7.60;99.90;;;;;;10403537;28;20251;-94
